createdAt,value
2019-03-28T00:01:45.902Z,5.20
2019-03-28T00:04:13.548Z,5.20
2019-03-28T00:06:41.178Z,5.10
2019-03-28T00:09:08.832Z,5.10
2019-03-28T00:11:36.630Z,5.20
2019-03-28T00:14:04.277Z,5.20
2019-03-28T00:16:31.903Z,5.10
2019-03-28T00:18:59.555Z,5.20
2019-03-28T00:21:27.183Z,5.20
2019-03-28T00:24:02.407Z,5.10
2019-03-28T00:26:30.836Z,5.10
2019-03-28T00:28:59.546Z,5.10
2019-03-28T00:31:27.195Z,5.10
2019-03-28T00:33:54.823Z,5.10
2019-03-28T00:36:22.468Z,5.10
2019-03-28T00:38:50.195Z,5.10
2019-03-28T00:41:17.915Z,5.10
2019-03-28T00:43:45.543Z,5.10
2019-03-28T00:46:13.182Z,5.00
2019-03-28T00:48:40.810Z,5.00
2019-03-28T00:51:08.450Z,5.00
2019-03-28T00:53:36.083Z,4.90
2019-03-28T00:56:03.722Z,4.90
2019-03-28T00:58:31.359Z,5.00
2019-03-28T01:00:59.002Z,4.90
2019-03-28T01:03:26.630Z,4.90
2019-03-28T01:05:54.282Z,4.90
2019-03-28T01:08:21.927Z,4.80
2019-03-28T01:10:49.570Z,4.70
2019-03-28T01:13:17.201Z,4.80
2019-03-28T01:15:44.858Z,4.80
2019-03-28T01:18:12.539Z,4.70
2019-03-28T01:20:40.214Z,4.70
2019-03-28T01:23:07.843Z,4.70
2019-03-28T01:25:35.482Z,4.60
2019-03-28T01:28:03.111Z,4.60
2019-03-28T01:30:30.759Z,4.60
2019-03-28T01:32:58.394Z,4.60
2019-03-28T01:35:26.026Z,4.60
2019-03-28T01:37:54.397Z,4.60
2019-03-28T01:40:22.072Z,4.50
2019-03-28T01:42:49.778Z,4.50
2019-03-28T01:45:17.422Z,4.50
2019-03-28T01:47:45.046Z,4.40
2019-03-28T01:50:12.695Z,4.40
2019-03-28T01:52:40.324Z,4.40
2019-03-28T01:55:08.022Z,4.30
2019-03-28T01:57:35.666Z,4.30
2019-03-28T02:00:03.766Z,4.20
2019-03-28T02:02:31.410Z,4.20
2019-03-28T02:04:59.040Z,4.10
2019-03-28T02:09:54.038Z,3.90
2019-03-28T02:12:21.674Z,3.90
2019-03-28T02:14:49.325Z,4.00
2019-03-28T02:17:16.958Z,4.10
2019-03-28T02:19:44.679Z,4.10
2019-03-28T02:22:12.806Z,4.10
2019-03-28T02:24:40.435Z,4.10
2019-03-28T02:27:08.078Z,4.10
2019-03-28T02:29:35.702Z,4.00
2019-03-28T02:32:03.344Z,3.90
2019-03-28T02:34:30.975Z,4.00
2019-03-28T02:36:58.620Z,4.10
2019-03-28T02:39:27.211Z,4.00
2019-03-28T02:41:54.855Z,4.10
2019-03-28T02:44:22.479Z,4.10
2019-03-28T02:46:50.119Z,4.20
2019-03-28T02:49:19.663Z,4.30
2019-03-28T02:51:47.795Z,4.30
2019-03-28T02:54:15.434Z,4.30
2019-03-28T02:56:43.071Z,4.30
2019-03-28T02:59:11.674Z,4.20
2019-03-28T03:01:40.448Z,4.10
2019-03-28T03:04:08.255Z,3.90
2019-03-28T03:06:35.933Z,3.80
2019-03-28T03:09:05.144Z,3.80
2019-03-28T03:11:32.783Z,3.80
2019-03-28T03:14:00.416Z,3.70
2019-03-28T03:16:28.066Z,3.80
2019-03-28T03:18:55.699Z,3.90
2019-03-28T03:21:23.326Z,4.00
2019-03-28T03:23:50.971Z,3.90
2019-03-28T03:26:18.603Z,3.70
2019-03-28T03:28:46.248Z,3.70
2019-03-28T03:31:20.324Z,3.90
2019-03-28T03:33:43.240Z,4.00
2019-03-28T03:36:10.867Z,4.00
2019-03-28T03:38:38.510Z,4.10
2019-03-28T03:41:06.138Z,4.10
2019-03-28T03:43:33.786Z,4.20
2019-03-28T03:46:01.901Z,4.10
2019-03-28T03:48:29.631Z,4.10
2019-03-28T03:50:57.264Z,4.10
2019-03-28T03:53:24.912Z,4.10
2019-03-28T03:55:52.531Z,4.10
2019-03-28T03:58:21.100Z,3.90
2019-03-28T04:00:48.734Z,3.90
2019-03-28T04:03:16.375Z,3.90
2019-03-28T04:05:44.008Z,3.80
2019-03-28T04:08:11.647Z,3.80
2019-03-28T04:10:39.302Z,3.80
2019-03-28T04:13:06.951Z,3.70
2019-03-28T04:15:34.575Z,3.70
2019-03-28T04:18:03.207Z,3.70
2019-03-28T04:20:30.914Z,3.70
2019-03-28T04:22:58.554Z,3.70
2019-03-28T04:25:26.175Z,3.80
2019-03-28T04:27:56.449Z,3.80
2019-03-28T04:30:24.107Z,3.80
2019-03-28T04:32:51.795Z,3.70
2019-03-28T04:35:19.450Z,3.80
2019-03-28T04:37:47.083Z,3.90
2019-03-28T04:40:14.794Z,3.80
2019-03-28T04:42:45.579Z,3.80
2019-03-28T04:45:11.850Z,3.80
2019-03-28T04:47:39.478Z,3.90
2019-03-28T04:50:07.390Z,3.90
2019-03-28T04:52:35.029Z,3.80
2019-03-28T04:55:02.671Z,3.80
2019-03-28T04:57:30.299Z,3.70
2019-03-28T04:59:57.942Z,3.60
2019-03-28T05:02:25.571Z,3.80
2019-03-28T05:04:53.210Z,3.80
2019-03-28T05:07:20.843Z,3.80
2019-03-28T05:09:48.478Z,3.80
2019-03-28T05:12:16.111Z,3.90
2019-03-28T05:14:43.754Z,3.80
2019-03-28T05:17:11.384Z,3.80
2019-03-28T05:19:39.054Z,3.70
2019-03-28T05:22:06.682Z,3.60
2019-03-28T05:24:34.324Z,3.60
2019-03-28T05:27:01.954Z,3.60
2019-03-28T05:29:29.598Z,3.70
2019-03-28T05:31:57.234Z,3.90
2019-03-28T05:34:24.866Z,3.90
2019-03-28T05:36:52.490Z,4.00
2019-03-28T05:39:20.131Z,4.00
2019-03-28T05:41:47.761Z,4.10
2019-03-28T05:44:15.407Z,4.20
2019-03-28T05:46:43.038Z,4.20
2019-03-28T05:49:10.704Z,4.20
2019-03-28T05:51:38.328Z,4.10
2019-03-28T05:54:06.058Z,4.10
2019-03-28T05:56:33.698Z,4.10
2019-03-28T05:59:10.601Z,4.00
2019-03-28T06:01:30.723Z,4.10
2019-03-28T06:03:58.358Z,4.10
2019-03-28T06:06:25.999Z,4.30
2019-03-28T06:08:53.626Z,4.40
2019-03-28T06:11:21.634Z,4.50
2019-03-28T06:13:49.266Z,4.70
2019-03-28T06:16:16.911Z,4.80
2019-03-28T06:18:44.538Z,4.80
2019-03-28T06:21:12.178Z,4.80
2019-03-28T06:23:39.808Z,4.80
2019-03-28T06:26:07.451Z,4.80
2019-03-28T06:28:35.123Z,4.80
2019-03-28T06:31:02.763Z,4.80
2019-03-28T06:33:30.396Z,5.20
2019-03-28T06:35:58.038Z,4.90
2019-03-28T06:38:25.666Z,5.00
2019-03-28T06:40:53.319Z,5.10
2019-03-28T06:43:20.942Z,5.20
2019-03-28T06:45:48.587Z,5.40
2019-03-28T06:48:16.219Z,5.50
2019-03-28T06:50:43.867Z,5.40
2019-03-28T06:53:11.530Z,5.50
2019-03-28T06:55:39.919Z,5.50
2019-03-28T06:58:07.550Z,5.60
2019-03-28T07:00:37.594Z,5.80
2019-03-28T07:03:05.292Z,5.90
2019-03-28T07:05:32.930Z,6.00
2019-03-28T07:08:00.568Z,6.00
2019-03-28T07:10:28.232Z,6.00
2019-03-28T07:12:55.858Z,6.00
2019-03-28T07:15:23.507Z,6.00
2019-03-28T07:17:51.138Z,6.10
2019-03-28T07:20:18.783Z,6.20
2019-03-28T07:22:46.426Z,6.30
2019-03-28T07:25:14.062Z,6.40
2019-03-28T07:27:41.703Z,6.50
2019-03-28T07:30:10.712Z,6.50
2019-03-28T07:32:38.339Z,6.60
2019-03-28T07:35:07.555Z,6.60
2019-03-28T07:37:35.183Z,6.80
2019-03-28T07:40:03.790Z,6.90
2019-03-28T07:42:31.422Z,7.00
2019-03-28T07:44:59.055Z,7.10
2019-03-28T07:47:26.702Z,7.30
2019-03-28T07:49:54.330Z,7.50
2019-03-28T07:52:21.982Z,7.70
2019-03-28T07:54:49.611Z,7.90
2019-03-28T07:57:17.250Z,8.00
2019-03-28T07:59:44.879Z,8.20
2019-03-28T08:02:12.518Z,8.20
2019-03-28T08:04:40.151Z,8.20
2019-03-28T08:07:07.791Z,8.50
2019-03-28T08:09:36.882Z,8.60
2019-03-28T08:12:05.038Z,8.30
2019-03-28T08:14:32.782Z,8.70
2019-03-28T08:17:00.423Z,8.80
2019-03-28T08:19:28.061Z,8.80
2019-03-28T08:24:23.071Z,8.90
2019-03-28T08:26:50.720Z,8.90
2019-03-28T08:29:18.346Z,8.90
2019-03-28T08:31:47.629Z,8.80
2019-03-28T08:34:15.260Z,8.90
2019-03-28T08:36:43.083Z,9.20
2019-03-28T08:39:10.715Z,9.40
2019-03-28T08:41:38.449Z,9.30
2019-03-28T08:44:07.415Z,9.20
2019-03-28T08:46:35.407Z,9.60
2019-03-28T08:53:58.706Z,9.90
2019-03-28T08:56:26.347Z,9.90
2019-03-28T08:58:55.960Z,10.10
2019-03-28T09:01:24.251Z,10.40
2019-03-28T09:03:51.888Z,10.70
2019-03-28T09:06:19.531Z,10.40
2019-03-28T09:08:48.143Z,10.60
2019-03-28T09:11:15.787Z,10.80
2019-03-28T09:13:43.419Z,10.40
2019-03-28T09:16:11.122Z,9.80
2019-03-28T09:18:39.751Z,9.80
2019-03-28T09:21:07.384Z,10.10
2019-03-28T09:23:35.016Z,10.40
2019-03-28T09:26:04.545Z,10.00
2019-03-28T09:35:54.647Z,10.60
2019-03-28T09:38:22.303Z,10.70
2019-03-28T09:40:50.011Z,10.90
2019-03-28T09:45:45.247Z,11.20
2019-03-28T09:48:12.943Z,11.60
2019-03-28T09:50:40.624Z,12.00
2019-03-28T09:53:08.324Z,12.30
2019-03-28T09:58:03.479Z,12.70
2019-03-28T10:00:32.761Z,12.30
2019-03-28T10:03:00.600Z,12.70
2019-03-28T10:07:55.685Z,13.90
2019-03-28T10:12:50.755Z,14.20
2019-03-28T10:15:18.593Z,14.30
2019-03-28T10:17:46.317Z,15.00
2019-03-28T10:20:14.223Z,14.80
2019-03-28T10:22:41.956Z,14.60
2019-03-28T10:25:12.377Z,14.60
2019-03-28T10:27:39.173Z,14.90
2019-03-28T10:35:01.788Z,12.90
2019-03-28T10:37:29.554Z,12.80
2019-03-28T10:39:57.336Z,13.10
2019-03-28T10:42:25.111Z,13.00
2019-03-28T10:44:52.958Z,12.90
2019-03-28T10:47:20.818Z,13.30
2019-03-28T10:49:48.511Z,13.80
2019-03-28T10:52:16.254Z,14.10
2019-03-28T10:54:44.102Z,14.50
2019-03-28T10:57:15.350Z,14.80
2019-03-28T10:59:41.393Z,14.90
2019-03-28T11:02:09.275Z,14.80
2019-03-28T11:04:37.056Z,15.00
2019-03-28T11:07:04.867Z,14.90
2019-03-28T11:09:38.391Z,14.40
2019-03-28T11:12:06.161Z,15.10
2019-03-28T11:14:33.826Z,15.30
2019-03-28T11:17:01.514Z,15.80
2019-03-28T11:19:35.043Z,15.50
2019-03-28T11:22:02.747Z,15.30
2019-03-28T11:24:30.434Z,15.20
2019-03-28T11:26:59.281Z,15.30
2019-03-28T11:29:26.958Z,14.40
2019-03-28T11:31:54.632Z,14.60
2019-03-28T11:34:22.314Z,13.70
2019-03-28T11:36:49.986Z,13.70
2019-03-28T11:39:23.522Z,13.80
2019-03-28T11:41:51.194Z,14.00
2019-03-28T11:44:18.880Z,14.20
2019-03-28T11:46:46.556Z,14.00
2019-03-28T11:49:16.211Z,14.00
2019-03-28T11:51:43.879Z,14.30
2019-03-28T11:54:11.567Z,14.30
2019-03-28T11:56:39.246Z,14.10
2019-03-28T11:59:20.066Z,14.20
2019-03-28T12:01:59.376Z,14.30
2019-03-28T12:04:17.172Z,14.40
2019-03-28T12:06:44.846Z,14.30
2019-03-28T12:09:21.470Z,14.20
2019-03-28T12:11:49.142Z,14.20
2019-03-28T12:14:16.826Z,14.10
2019-03-28T12:16:44.494Z,14.20
2019-03-28T12:19:17.656Z,14.30
2019-03-28T12:21:44.759Z,14.00
2019-03-28T12:24:12.646Z,14.00
2019-03-28T12:26:40.327Z,14.10
2019-03-28T12:29:18.720Z,14.00
2019-03-28T12:31:46.483Z,13.90
2019-03-28T12:34:14.180Z,13.90
2019-03-28T12:36:41.863Z,13.70
2019-03-28T12:39:09.542Z,13.70
2019-03-28T12:41:37.231Z,13.70
2019-03-28T12:44:04.918Z,13.70
2019-03-28T12:46:32.593Z,13.80
2019-03-28T12:49:01.251Z,13.90
2019-03-28T12:51:28.948Z,13.90
2019-03-28T12:53:56.639Z,13.90
2019-03-28T12:56:26.402Z,14.10
2019-03-28T12:58:59.582Z,14.40
2019-03-28T13:01:27.257Z,15.00
2019-03-28T13:03:54.962Z,15.40
2019-03-28T13:06:22.665Z,15.60
2019-03-28T13:08:50.411Z,15.90
2019-03-28T13:11:18.082Z,16.40
2019-03-28T13:13:45.772Z,16.50
2019-03-28T13:16:13.442Z,16.50
2019-03-28T13:18:44.146Z,16.30
2019-03-28T13:21:13.839Z,16.50
2019-03-28T13:23:41.233Z,16.50
2019-03-28T13:26:08.898Z,16.70
2019-03-28T13:28:37.558Z,16.00
2019-03-28T13:31:05.231Z,16.20
2019-03-28T13:33:32.915Z,15.80
2019-03-28T13:36:00.592Z,16.10
2019-03-28T13:38:30.254Z,16.40
2019-03-28T13:40:57.926Z,16.30
2019-03-28T13:43:25.601Z,16.50
2019-03-28T13:45:53.277Z,16.60
2019-03-28T13:48:21.088Z,17.00
2019-03-28T13:50:48.785Z,18.10
2019-03-28T13:53:16.454Z,18.50
2019-03-28T13:55:44.669Z,18.60
2019-03-28T13:58:13.796Z,18.00
2019-03-28T14:03:09.250Z,17.60
2019-03-28T14:05:36.950Z,17.20
2019-03-28T14:10:32.118Z,16.10
2019-03-28T14:12:59.785Z,15.80
2019-03-28T14:15:27.469Z,15.70
2019-03-28T14:17:55.145Z,15.50
2019-03-28T14:20:22.832Z,15.10
2019-03-28T14:22:50.508Z,15.10
2019-03-28T14:25:18.269Z,15.20
2019-03-28T14:27:46.012Z,15.30
2019-03-28T14:30:13.790Z,15.60
2019-03-28T14:32:52.546Z,15.80
2019-03-28T14:35:10.871Z,15.90
2019-03-28T14:37:44.359Z,15.90
2019-03-28T14:40:12.110Z,15.90
2019-03-28T14:42:40.814Z,15.70
2019-03-28T14:45:08.916Z,15.70
2019-03-28T14:47:36.599Z,15.90
2019-03-28T14:50:05.373Z,15.90
2019-03-28T14:52:33.278Z,15.70
2019-03-28T14:55:01.613Z,15.60
2019-03-28T14:57:30.086Z,15.50
2019-03-28T14:59:57.767Z,15.60
2019-03-28T15:02:25.446Z,15.60
2019-03-28T15:04:53.130Z,15.30
2019-03-28T15:07:20.814Z,15.20
2019-03-28T15:09:57.586Z,15.10
2019-03-28T15:12:25.269Z,14.90
2019-03-28T15:14:53.021Z,14.80
2019-03-28T15:17:20.695Z,14.70
2019-03-28T15:19:54.282Z,14.60
2019-03-28T15:22:21.955Z,14.50
2019-03-28T15:24:49.638Z,14.40
2019-03-28T15:27:17.310Z,14.30
2019-03-28T15:29:45.948Z,14.30
2019-03-28T15:32:13.621Z,14.30
2019-03-28T15:34:41.382Z,14.30
2019-03-28T15:37:09.055Z,14.30
2019-03-28T15:39:36.739Z,14.10
2019-03-28T15:42:04.409Z,14.20
2019-03-28T15:44:32.110Z,14.20
2019-03-28T15:46:59.791Z,14.20
2019-03-28T15:49:27.899Z,14.10
2019-03-28T15:51:55.907Z,14.20
2019-03-28T15:54:23.577Z,14.00
2019-03-28T15:56:51.258Z,13.90
2019-03-28T15:59:18.931Z,14.00
2019-03-28T16:01:46.618Z,14.10
2019-03-28T16:04:14.291Z,14.20
2019-03-28T16:06:41.978Z,14.40
2019-03-28T16:09:11.691Z,14.20
2019-03-28T16:11:39.370Z,14.10
2019-03-28T16:14:07.042Z,13.90
2019-03-28T16:16:34.729Z,13.60
2019-03-28T16:19:12.786Z,13.50
2019-03-28T16:24:07.940Z,13.30
2019-03-28T16:26:35.626Z,13.20
2019-03-28T16:29:10.078Z,13.20
2019-03-28T16:31:37.767Z,13.20
2019-03-28T16:34:07.293Z,13.20
2019-03-28T16:36:34.926Z,13.10
2019-03-28T16:39:05.141Z,13.20
2019-03-28T16:41:32.822Z,13.10
2019-03-28T16:44:00.494Z,13.10
2019-03-28T16:46:28.190Z,13.10
2019-03-28T16:48:55.866Z,13.10
2019-03-28T16:51:23.546Z,13.00
2019-03-28T16:53:51.219Z,13.00
2019-03-28T16:56:18.915Z,12.90
2019-03-28T16:58:55.285Z,12.90
2019-03-28T17:01:21.885Z,12.80
2019-03-28T17:03:49.551Z,12.70
2019-03-28T17:06:17.728Z,12.70
2019-03-28T17:08:45.470Z,12.60
2019-03-28T17:11:13.159Z,12.40
2019-03-28T17:13:40.831Z,12.40
2019-03-28T17:16:08.518Z,12.30
2019-03-28T17:19:06.875Z,12.20
2019-03-28T17:21:34.574Z,12.20
2019-03-28T17:24:02.382Z,12.10
2019-03-28T17:26:30.062Z,12.00
2019-03-28T17:29:01.674Z,12.00
2019-03-28T17:31:29.358Z,12.00
2019-03-28T17:33:57.750Z,11.90
2019-03-28T17:36:26.951Z,11.80
2019-03-28T17:39:01.638Z,11.70
2019-03-28T17:41:29.317Z,11.70
2019-03-28T17:43:56.989Z,11.70
2019-03-28T17:46:24.679Z,11.70
2019-03-28T17:48:52.358Z,11.70
2019-03-28T17:51:20.063Z,11.60
2019-03-28T17:53:47.734Z,11.60
2019-03-28T17:56:15.414Z,11.50
2019-03-28T17:58:55.217Z,11.40
2019-03-28T18:01:22.926Z,11.40
2019-03-28T18:03:50.599Z,11.30
2019-03-28T18:08:51.610Z,11.00
2019-03-28T18:11:19.282Z,10.90
2019-03-28T18:16:14.370Z,10.60
2019-03-28T18:18:51.283Z,10.60
2019-03-28T18:21:18.956Z,10.60
2019-03-28T18:23:46.639Z,10.60
2019-03-28T18:26:14.310Z,10.60
2019-03-28T18:28:55.438Z,10.60
2019-03-28T18:31:23.190Z,10.50
2019-03-28T18:33:50.945Z,10.50
2019-03-28T18:36:18.622Z,10.50
2019-03-28T18:38:46.306Z,10.50
2019-03-28T18:41:24.866Z,10.60
2019-03-28T18:43:52.549Z,10.50
2019-03-28T18:46:20.222Z,10.50
2019-03-28T18:48:51.596Z,10.50
2019-03-28T18:51:19.267Z,10.50
2019-03-28T18:53:46.951Z,10.50
2019-03-28T18:56:14.630Z,10.50
2019-03-28T18:58:42.331Z,10.50
2019-03-28T19:01:10.062Z,10.50
2019-03-28T19:03:37.750Z,10.50
2019-03-28T19:06:05.419Z,10.50
2019-03-28T19:08:33.102Z,10.50
2019-03-28T19:11:00.856Z,10.50
2019-03-28T19:13:28.545Z,10.50
2019-03-28T19:15:56.283Z,10.50
2019-03-28T19:18:29.866Z,10.40
2019-03-28T19:20:57.535Z,10.40
2019-03-28T19:23:25.218Z,10.40
2019-03-28T19:25:52.896Z,10.40
2019-03-28T19:28:32.899Z,10.40
2019-03-28T19:31:00.566Z,10.40
2019-03-28T19:33:28.625Z,10.30
2019-03-28T19:35:56.301Z,10.30
2019-03-28T19:38:34.090Z,10.30
2019-03-28T19:43:29.246Z,10.30
2019-03-28T19:45:56.919Z,10.20
2019-03-28T19:48:30.570Z,10.20
2019-03-28T19:50:58.242Z,10.20
2019-03-28T19:55:53.330Z,10.00
2019-03-28T19:58:31.017Z,9.90
2019-03-28T20:00:58.974Z,9.80
2019-03-28T20:03:26.666Z,9.80
2019-03-28T20:05:54.338Z,9.80
2019-03-28T20:08:26.005Z,9.80
2019-03-28T20:10:52.423Z,9.70
2019-03-28T20:13:20.090Z,9.70
2019-03-28T20:15:47.775Z,9.80
2019-03-28T20:18:22.476Z,9.80
2019-03-28T20:20:50.233Z,9.80
2019-03-28T20:23:17.967Z,9.80
2019-03-28T20:25:45.646Z,9.80
2019-03-28T20:28:14.538Z,9.80
2019-03-28T20:30:42.587Z,9.80
2019-03-28T20:33:11.719Z,9.70
2019-03-28T20:35:39.582Z,9.70
2019-03-28T20:38:07.320Z,9.60
2019-03-28T20:40:35.186Z,9.60
2019-03-28T20:43:02.846Z,9.60
2019-03-28T20:45:30.602Z,9.60
2019-03-28T20:47:58.274Z,9.50
2019-03-28T20:52:53.350Z,9.50
2019-03-28T20:55:21.027Z,9.50
2019-03-28T20:57:48.694Z,9.50
2019-03-28T21:00:17.914Z,9.60
2019-03-28T21:02:45.586Z,9.60
2019-03-28T21:05:14.481Z,9.60
2019-03-28T21:07:42.478Z,9.60
2019-03-28T21:10:11.703Z,9.50
2019-03-28T21:12:39.366Z,9.50
2019-03-28T21:15:07.310Z,9.50
2019-03-28T21:17:34.974Z,9.50
2019-03-28T21:20:02.726Z,9.50
2019-03-28T21:22:30.391Z,9.40
2019-03-28T21:24:58.098Z,9.40
2019-03-28T21:27:25.780Z,9.40
2019-03-28T21:29:54.323Z,9.30
2019-03-28T21:32:21.959Z,9.30
2019-03-28T21:34:49.586Z,9.30
2019-03-28T21:37:17.234Z,9.30
2019-03-28T21:39:44.862Z,9.30
2019-03-28T21:42:12.515Z,9.30
2019-03-28T21:44:40.146Z,9.20
2019-03-28T21:47:07.792Z,9.20
2019-03-28T21:54:30.222Z,9.00
2019-03-28T21:56:57.871Z,8.80
2019-03-28T21:59:34.763Z,8.70
2019-03-28T22:02:02.402Z,8.60
2019-03-28T22:06:57.408Z,8.30
2019-03-28T22:09:30.830Z,8.30
2019-03-28T22:12:00.728Z,8.20
2019-03-28T22:14:27.831Z,8.00
2019-03-28T22:16:55.482Z,7.90
2019-03-28T22:19:23.108Z,7.80
2019-03-28T22:21:50.758Z,7.70
2019-03-28T22:24:18.386Z,7.70
2019-03-28T22:26:46.248Z,7.60
2019-03-28T22:29:14.990Z,7.50
2019-03-28T22:31:42.638Z,7.40
2019-03-28T22:34:10.274Z,7.30
2019-03-28T22:36:37.915Z,7.20
2019-03-28T22:39:06.320Z,7.10
2019-03-28T22:41:33.979Z,7.00
2019-03-28T22:44:01.782Z,6.90
2019-03-28T22:46:29.422Z,6.80
2019-03-28T22:48:57.043Z,6.70
2019-03-28T22:51:24.688Z,6.70
2019-03-28T22:53:52.331Z,6.70
2019-03-28T22:58:47.338Z,6.60
2019-03-28T23:01:15.038Z,6.60
2019-03-28T23:03:42.678Z,6.60
2019-03-28T23:06:10.310Z,6.50
2019-03-28T23:08:52.230Z,6.50
2019-03-28T23:11:19.854Z,6.50
2019-03-28T23:13:47.494Z,6.30
2019-03-28T23:16:15.123Z,6.20
2019-03-28T23:18:45.747Z,6.00
2019-03-28T23:21:13.378Z,5.80
2019-03-28T23:23:41.024Z,5.80
2019-03-28T23:26:09.020Z,5.80
2019-03-28T23:28:47.563Z,5.60
2019-03-28T23:31:15.185Z,5.60
2019-03-28T23:33:42.827Z,5.30
2019-03-28T23:38:37.834Z,5.40
2019-03-28T23:41:05.462Z,5.40
2019-03-28T23:43:33.110Z,5.50
2019-03-28T23:46:00.734Z,5.50
2019-03-28T23:48:36.523Z,5.30
2019-03-28T23:51:04.155Z,5.00
2019-03-28T23:53:31.799Z,4.90
2019-03-28T23:55:59.426Z,4.80
2019-03-28T23:58:27.070Z,4.70
